Time;durP1;ratioP1;P1;durP2;ratioP2;P2;SDS_P1;SDS_P2;PMS_P1;PMS_P2;Temp;Humidity;BMP_temperature;BMP_pressure;BME280_temperature;BME280_humidity;BME280_pressure;Samples;Min_cycle;Max_cycle;Signal;HPM_P1;HPM_P2
2021/03/31 00:01:39;;;;;;;5.63;5.13;;;;;;;4.15;82.26;96557.38;5086799;28;20229;-68
2021/03/31 00:04:06;;;;;;;5.63;5.13;;;;;;;4.08;82.81;96553.59;5073747;28;20245;-68
2021/03/31 00:06:33;;;;;;;6.87;5.90;;;;;;;4.01;83.63;96547.19;5067255;28;20226;-68
2021/03/31 00:09:01;;;;;;;5.43;4.93;;;;;;;4.02;83.28;96546.22;5080769;28;20226;-68
2021/03/31 00:11:28;;;;;;;8.40;6.60;;;;;;;4.00;83.29;96541.13;5071847;28;20298;-68
2021/03/31 00:13:58;;;;;;;5.73;4.73;;;;;;;4.01;83.57;96541.97;5085999;28;20227;-68
2021/03/31 00:16:25;;;;;;;7.87;6.03;;;;;;;4.07;83.53;96540.66;5082355;28;20233;-68
2021/03/31 00:18:52;;;;;;;8.17;5.43;;;;;;;4.07;84.22;96538.88;5086714;28;20242;-68
2021/03/31 00:21:19;;;;;;;5.00;4.57;;;;;;;4.09;85.04;96544.78;5080338;28;20687;-67
2021/03/31 00:23:46;;;;;;;6.50;5.10;;;;;;;4.17;84.93;96545.03;5077147;28;20245;-68
2021/03/31 00:26:13;;;;;;;11.93;8.27;;;;;;;4.22;84.22;96545.50;5072245;28;20283;-69
2021/03/31 00:28:41;;;;;;;7.27;6.63;;;;;;;4.18;83.91;96540.63;5081285;28;20220;-68
2021/03/31 00:31:09;;;;;;;6.57;5.50;;;;;;;4.17;83.69;96542.41;5083076;28;20222;-69
2021/03/31 00:33:36;;;;;;;7.17;6.47;;;;;;;4.10;83.84;96530.78;5084608;28;20300;-69
2021/03/31 00:36:05;;;;;;;5.90;4.70;;;;;;;4.04;84.60;96526.06;5085057;28;20636;-69
2021/03/31 00:38:32;;;;;;;5.77;5.27;;;;;;;3.95;84.87;96524.19;5085867;28;20243;-68
2021/03/31 00:40:58;;;;;;;6.53;5.60;;;;;;;3.87;85.01;96519.56;5074308;28;20291;-68
2021/03/31 00:43:27;;;;;;;15.40;5.57;;;;;;;3.85;84.90;96524.09;5086730;28;20643;-67
2021/03/31 00:45:54;;;;;;;9.20;6.50;;;;;;;3.86;85.51;96527.53;5076968;28;20218;-68
2021/03/31 00:48:20;;;;;;;18.00;8.63;;;;;;;3.88;84.94;96526.44;5078169;28;20283;-68
2021/03/31 00:50:49;;;;;;;9.60;8.73;;;;;;;3.87;84.60;96530.00;5076806;28;20496;-68
2021/03/31 00:53:20;;;;;;;8.20;5.57;;;;;;;3.77;86.16;96523.03;5084155;28;20225;-68
2021/03/31 00:55:48;;;;;;;7.53;5.90;;;;;;;3.41;85.39;96527.56;5076392;28;20236;-68
2021/03/31 00:58:15;;;;;;;4.50;4.13;;;;;;;3.41;84.30;96522.34;5075128;28;20263;-69
2021/03/31 01:00:42;;;;;;;6.77;4.50;;;;;;;3.25;84.67;96521.84;5081900;28;20441;-68
2021/03/31 01:03:11;;;;;;;4.40;4.10;;;;;;;3.12;85.01;96528.00;5076681;28;20232;-68
2021/03/31 01:05:38;;;;;;;4.40;3.80;;;;;;;2.93;85.04;96527.75;5069757;28;20521;-68
2021/03/31 01:08:05;;;;;;;7.53;5.47;;;;;;;2.77;85.16;96527.22;5073995;28;20236;-67
2021/03/31 01:10:34;;;;;;;5.20;4.77;;;;;;;2.69;85.89;96524.38;5079303;28;20251;-69
2021/03/31 01:13:23;;;;;;;4.20;3.83;;;;;;;2.66;86.29;96527.22;5067685;28;20231;-68
2021/03/31 01:15:57;;;;;;;9.57;4.70;;;;;;;2.56;87.57;96525.28;5081976;28;20224;-68
2021/03/31 01:18:32;;;;;;;5.87;4.73;;;;;;;2.47;88.61;96520.75;5066368;28;20276;-68
2021/03/31 01:21:42;;;;;;;7.53;6.40;;;;;;;2.50;88.76;96525.72;5065457;28;20687;-66
2021/03/31 01:24:33;;;;;;;5.47;4.80;;;;;;;2.43;88.90;96524.50;5078233;28;20218;-68
2021/03/31 01:27:04;;;;;;;6.07;5.47;;;;;;;2.48;89.10;96521.56;5080240;28;20218;-68
2021/03/31 01:30:05;;;;;;;7.90;6.70;;;;;;;2.47;88.85;96515.53;5081394;28;20718;-68
2021/03/31 01:32:47;;;;;;;6.73;6.13;;;;;;;2.44;88.89;96520.97;5085161;28;20218;-68
2021/03/31 01:35:17;;;;;;;7.87;5.43;;;;;;;2.37;89.46;96513.69;5069307;28;20227;-68
2021/03/31 01:37:48;;;;;;;5.83;5.33;;;;;;;2.34;89.79;96514.75;5075064;28;20249;-68
2021/03/31 01:40:17;;;;;;;5.50;5.10;;;;;;;2.35;89.07;96511.22;5078306;28;20508;-68
2021/03/31 01:42:48;;;;;;;6.93;5.30;;;;;;;2.35;89.81;96510.38;5084227;28;20699;-68
2021/03/31 01:45:18;;;;;;;9.90;6.00;;;;;;;2.33;90.98;96510.50;5069517;28;20226;-68
2021/03/31 01:47:47;;;;;;;8.87;7.97;;;;;;;2.30;89.96;96510.72;5063927;28;20584;-67
2021/03/31 01:50:16;;;;;;;6.47;5.87;;;;;;;2.33;90.33;96507.91;5073252;28;20226;-68
2021/03/31 01:52:44;;;;;;;4.93;4.53;;;;;;;2.32;90.68;96508.84;5064098;28;20413;-68
2021/03/31 01:55:14;;;;;;;5.33;4.87;;;;;;;2.36;90.99;96506.84;5064812;28;20336;-68
2021/03/31 01:57:43;;;;;;;5.33;4.90;;;;;;;2.29;90.42;96506.47;5076028;28;20638;-67
2021/03/31 02:00:14;;;;;;;5.80;5.37;;;;;;;2.29;91.14;96511.69;5071831;28;20245;-68
2021/03/31 02:02:44;;;;;;;7.47;5.33;;;;;;;2.28;90.16;96510.81;5081894;28;20299;-68
2021/03/31 02:05:12;;;;;;;5.30;4.80;;;;;;;2.28;91.00;96507.38;5083744;28;20271;-68
2021/03/31 02:07:41;;;;;;;4.60;4.23;;;;;;;2.31;91.52;96504.56;5085062;28;20234;-68
2021/03/31 02:10:11;;;;;;;6.60;5.60;;;;;;;2.30;92.47;96502.09;5078429;28;20670;-68
2021/03/31 02:12:40;;;;;;;7.70;5.47;;;;;;;2.31;92.37;96504.56;5064757;28;20234;-68
2021/03/31 02:15:09;;;;;;;5.27;4.73;;;;;;;2.31;92.69;96501.97;5065517;28;20226;-68
2021/03/31 02:17:37;;;;;;;3.57;3.27;;;;;;;2.33;92.31;96492.28;5082142;28;20218;-68
2021/03/31 02:20:06;;;;;;;4.03;3.73;;;;;;;2.33;93.01;96497.47;5082858;28;20322;-68
2021/03/31 02:22:34;;;;;;;6.63;5.93;;;;;;;2.30;92.94;96496.88;5071597;28;20218;-68
2021/03/31 02:25:04;;;;;;;5.40;4.90;;;;;;;2.29;92.01;96503.88;5076016;28;20231;-68
2021/03/31 02:27:32;;;;;;;7.77;6.97;;;;;;;2.28;92.81;96504.78;5080358;28;20579;-68
2021/03/31 02:29:59;;;;;;;5.33;4.20;;;;;;;2.30;93.24;96502.91;5080083;28;20280;-68
2021/03/31 02:32:27;;;;;;;4.60;4.20;;;;;;;2.30;93.07;96497.72;5079956;28;20227;-68
2021/03/31 02:34:56;;;;;;;8.73;6.60;;;;;;;2.30;93.32;96496.88;5062693;28;20243;-68
2021/03/31 02:37:24;;;;;;;5.47;5.03;;;;;;;2.32;92.81;96495.81;5064604;28;20220;-67
2021/03/31 02:39:53;;;;;;;7.70;5.73;;;;;;;2.31;92.36;96491.56;5062127;28;20231;-66
2021/03/31 02:42:25;;;;;;;7.33;4.63;;;;;;;2.25;91.97;96494.59;5077666;28;20218;-67
2021/03/31 02:44:54;;;;;;;6.93;6.30;;;;;;;2.14;92.60;96491.97;5083292;28;20287;-66
2021/03/31 02:47:24;;;;;;;6.80;4.87;;;;;;;2.10;92.20;96491.31;5068552;28;20223;-67
2021/03/31 02:49:54;;;;;;;7.37;6.67;;;;;;;2.06;92.85;96483.88;5065534;28;20231;-68
2021/03/31 02:52:23;;;;;;;5.93;5.33;;;;;;;2.04;93.04;96475.34;5075511;28;20225;-68
2021/03/31 02:54:51;;;;;;;5.07;4.60;;;;;;;2.05;92.91;96477.00;5064450;28;20230;-68
2021/03/31 02:57:19;;;;;;;6.57;4.90;;;;;;;2.15;92.87;96478.81;5081494;28;20763;-68
2021/03/31 02:59:48;;;;;;;10.47;5.80;;;;;;;2.22;92.04;96468.78;5078659;28;20651;-67
2021/03/31 03:02:16;;;;;;;7.50;6.80;;;;;;;2.22;91.55;96466.19;5082987;28;20221;-69
2021/03/31 03:04:46;;;;;;;5.90;4.70;;;;;;;2.14;91.11;96471.13;5072483;28;20219;-69
2021/03/31 03:07:13;;;;;;;5.87;5.40;;;;;;;2.04;91.08;96470.13;5071246;28;20229;-69
2021/03/31 03:09:41;;;;;;;7.97;7.13;;;;;;;1.92;91.51;96466.63;5068648;28;20513;-68
2021/03/31 03:12:11;;;;;;;6.27;5.73;;;;;;;1.72;91.02;96470.66;5077440;28;20283;-68
2021/03/31 03:14:41;;;;;;;5.27;4.10;;;;;;;1.58;90.74;96471.66;5083912;28;20221;-68
2021/03/31 03:17:09;;;;;;;6.17;5.77;;;;;;;1.43;91.08;96472.75;5068190;28;20299;-68
2021/03/31 03:19:36;;;;;;;6.83;5.33;;;;;;;1.14;90.65;96473.00;5064657;28;20234;-67
2021/03/31 03:22:06;;;;;;;5.83;5.37;;;;;;;1.07;91.33;96476.13;5062636;28;20218;-68
2021/03/31 03:24:33;;;;;;;6.67;6.07;;;;;;;0.90;92.31;96476.44;5073775;28;20268;-67
2021/03/31 03:27:01;;;;;;;4.47;4.10;;;;;;;0.96;92.15;96481.22;5062256;28;20309;-67
2021/03/31 03:29:29;;;;;;;5.37;4.00;;;;;;;0.89;93.18;96475.63;5078649;28;20639;-68
2021/03/31 03:31:57;;;;;;;6.30;4.63;;;;;;;0.88;93.61;96470.53;5082068;28;20545;-68
2021/03/31 03:34:25;;;;;;;8.50;5.60;;;;;;;0.81;94.27;96468.34;5069703;28;20232;-68
2021/03/31 03:36:52;;;;;;;6.50;5.47;;;;;;;0.90;93.77;96471.25;5064906;28;22204;-67
2021/03/31 03:39:20;;;;;;;5.60;5.20;;;;;;;0.93;95.02;96471.06;5078048;28;20239;-67
2021/03/31 03:41:49;;;;;;;5.70;5.10;;;;;;;0.90;94.58;96471.25;5082402;28;20268;-68
2021/03/31 03:44:17;;;;;;;6.37;5.87;;;;;;;0.90;94.20;96464.28;5080425;28;20702;-67
2021/03/31 03:46:48;;;;;;;6.63;5.80;;;;;;;0.79;94.89;96462.41;5080375;28;20221;-68
2021/03/31 03:49:15;;;;;;;5.70;5.27;;;;;;;0.76;95.17;96461.81;5078337;28;20275;-68
2021/03/31 03:51:45;;;;;;;5.53;5.03;;;;;;;0.79;95.46;96465.03;5067742;28;20226;-68
2021/03/31 03:54:11;;;;;;;5.30;4.90;;;;;;;0.80;95.52;96461.47;5067817;28;20252;-68
2021/03/31 03:56:38;;;;;;;8.50;6.20;;;;;;;0.84;96.23;96462.97;5061131;28;20288;-68
2021/03/31 03:59:19;;;;;;;9.07;6.60;;;;;;;0.89;95.94;96464.41;5068966;28;20698;-68
2021/03/31 04:01:46;;;;;;;6.77;5.03;;;;;;;0.91;95.88;96465.13;5068814;28;20314;-67
2021/03/31 04:04:13;;;;;;;6.10;5.50;;;;;;;0.84;96.43;96468.16;5074536;28;20255;-68
2021/03/31 04:06:40;;;;;;;8.37;4.80;;;;;;;0.77;95.44;96461.69;5082059;28;20366;-68
2021/03/31 04:09:08;;;;;;;5.87;4.63;;;;;;;0.82;94.91;96464.84;5065125;28;20662;-68
2021/03/31 04:11:37;;;;;;;6.27;4.80;;;;;;;0.73;93.50;96470.66;5064177;28;20229;-69
2021/03/31 04:14:06;;;;;;;9.50;6.17;;;;;;;0.69;94.33;96466.59;5066778;28;20758;-67
2021/03/31 04:16:35;;;;;;;5.00;4.60;;;;;;;0.70;94.66;96460.44;5064236;28;20313;-68
2021/03/31 04:19:06;;;;;;;5.73;4.90;;;;;;;0.68;95.28;96464.09;5078898;28;20312;-68
2021/03/31 04:21:35;;;;;;;7.03;5.73;;;;;;;0.55;94.99;96456.31;5086908;28;20252;-68
2021/03/31 04:24:03;;;;;;;5.27;4.80;;;;;;;0.58;94.11;96456.09;5080723;28;20714;-68
2021/03/31 04:26:32;;;;;;;5.10;4.60;;;;;;;0.57;93.63;96464.81;5064004;28;20222;-68
2021/03/31 04:29:00;;;;;;;4.53;4.13;;;;;;;0.56;94.26;96457.97;5064785;28;20233;-68
2021/03/31 04:31:28;;;;;;;6.57;5.67;;;;;;;0.56;94.66;96464.00;5067303;28;20628;-68
2021/03/31 04:33:56;;;;;;;17.00;6.57;;;;;;;0.63;95.57;96454.00;5064848;28;20248;-68
2021/03/31 04:36:24;;;;;;;7.47;5.80;;;;;;;0.62;96.04;96461.91;5077784;28;20230;-68
2021/03/31 04:38:51;;;;;;;5.90;5.40;;;;;;;0.61;95.81;96461.06;5065218;28;20623;-67
2021/03/31 04:41:18;;;;;;;7.50;5.00;;;;;;;0.67;95.81;96462.44;5064898;28;20891;-68
2021/03/31 04:43:46;;;;;;;5.37;4.97;;;;;;;0.72;96.05;96457.75;5065394;28;20263;-69
2021/03/31 04:46:13;;;;;;;4.40;4.00;;;;;;;0.71;95.59;96462.09;5066662;28;20785;-68
2021/03/31 04:48:40;;;;;;;6.20;5.63;;;;;;;0.76;94.86;96454.84;5069149;28;20214;-68
2021/03/31 04:51:07;;;;;;;5.73;5.33;;;;;;;0.67;94.88;96459.84;5062897;28;20222;-68
2021/03/31 04:53:35;;;;;;;7.10;6.47;;;;;;;0.69;94.93;96458.78;5063220;28;20303;-68
2021/03/31 04:56:03;;;;;;;6.27;5.67;;;;;;;0.59;94.39;96457.75;5062938;28;20240;-68
2021/03/31 04:58:30;;;;;;;7.07;4.57;;;;;;;0.44;94.33;96463.97;5063191;28;20275;-68
2021/03/31 05:00:59;;;;;;;4.67;4.27;;;;;;;0.39;94.28;96461.69;5064014;28;20376;-68
2021/03/31 05:03:26;;;;;;;6.63;6.03;;;;;;;0.37;94.22;96458.38;5067532;28;20224;-67
2021/03/31 05:05:53;;;;;;;4.67;4.27;;;;;;;0.41;94.59;96457.22;5062848;28;20294;-68
2021/03/31 05:08:20;;;;;;;6.57;6.07;;;;;;;0.41;95.34;96458.97;5061180;28;20226;-68
2021/03/31 05:10:47;;;;;;;6.80;5.33;;;;;;;0.53;95.34;96463.34;5062648;28;20707;-68
2021/03/31 05:13:14;;;;;;;7.20;6.10;;;;;;;0.49;95.54;96459.31;5063644;28;20214;-68
2021/03/31 05:15:42;;;;;;;4.93;4.63;;;;;;;0.48;95.28;96460.25;5083272;28;20232;-69
2021/03/31 05:18:10;;;;;;;5.27;4.77;;;;;;;0.57;94.84;96464.81;5068534;28;20316;-67
2021/03/31 05:20:37;;;;;;;4.47;4.10;;;;;;;0.55;95.09;96461.50;5063054;28;20723;-68
2021/03/31 05:23:04;;;;;;;14.60;5.87;;;;;;;0.37;94.73;96463.56;5076567;28;20371;-68
2021/03/31 05:25:31;;;;;;;8.20;4.80;;;;;;;0.22;94.01;96460.19;5083145;28;20642;-68
2021/03/31 05:27:58;;;;;;;5.50;4.50;;;;;;;0.23;94.45;96466.22;5068319;28;20251;-66
2021/03/31 05:30:26;;;;;;;5.37;4.60;;;;;;;0.35;94.82;96465.41;5062113;28;20341;-66
2021/03/31 05:32:53;;;;;;;7.00;4.93;;;;;;;0.44;94.70;96464.78;5063848;28;20316;-68
2021/03/31 05:35:22;;;;;;;5.37;4.97;;;;;;;0.52;94.37;96466.88;5076128;28;20236;-69
2021/03/31 05:37:49;;;;;;;4.13;3.50;;;;;;;0.60;94.09;96462.00;5060537;28;20225;-68
2021/03/31 05:40:20;;;;;;;5.30;4.60;;;;;;;0.66;94.80;96458.19;5097868;27;20585;-68
2021/03/31 05:42:47;;;;;;;5.77;4.87;;;;;;;0.76;95.04;96457.44;5075442;28;20228;-67
2021/03/31 05:45:15;;;;;;;4.90;3.50;;;;;;;0.92;95.02;96459.00;5077575;28;20328;-67
2021/03/31 05:47:44;;;;;;;5.90;5.07;;;;;;;1.18;94.94;96455.41;5066662;28;20279;-68
2021/03/31 05:50:13;;;;;;;12.57;5.03;;;;;;;1.56;95.29;96455.34;5080351;28;20222;-68
2021/03/31 05:52:41;;;;;;;5.80;5.30;;;;;;;1.82;94.44;96450.84;5063506;28;20326;-66
2021/03/31 05:55:11;;;;;;;4.50;3.53;;;;;;;1.97;94.02;96454.13;5062141;28;20553;-66
2021/03/31 05:57:38;;;;;;;5.40;3.97;;;;;;;2.11;92.86;96455.75;5063186;28;20222;-66
2021/03/31 06:00:08;;;;;;;6.90;4.30;;;;;;;2.20;93.24;96455.91;5062851;28;20225;-67
2021/03/31 06:02:40;;;;;;;4.20;3.80;;;;;;;2.27;92.73;96456.25;5069082;28;20617;-67
2021/03/31 06:05:08;;;;;;;4.80;4.30;;;;;;;2.37;92.45;96454.63;5071453;28;20312;-68
2021/03/31 06:07:36;;;;;;;3.93;3.70;;;;;;;2.43;92.14;96456.78;5065206;28;20230;-67
2021/03/31 06:10:17;;;;;;;5.33;4.83;;;;;;;2.53;92.64;96457.75;5073564;28;20218;-68
2021/03/31 06:12:47;;;;;;;3.93;3.63;;;;;;;2.66;92.44;96451.63;5077423;28;20294;-68
2021/03/31 06:15:24;;;;;;;4.50;3.93;;;;;;;2.79;91.86;96452.34;5077896;28;20275;-67
2021/03/31 06:17:54;;;;;;;3.33;2.77;;;;;;;2.97;92.05;96456.16;5070974;28;20243;-68
2021/03/31 06:20:39;;;;;;;7.00;4.43;;;;;;;3.17;91.91;96453.81;5077810;28;20309;-69
2021/03/31 06:23:13;;;;;;;5.07;2.73;;;;;;;3.35;91.95;96452.38;5078737;28;20241;-66
2021/03/31 06:25:49;;;;;;;7.33;3.70;;;;;;;3.57;90.88;96454.97;5077074;28;20225;-64
2021/03/31 06:28:34;;;;;;;3.30;2.97;;;;;;;3.77;91.28;96447.31;5081009;28;20567;-66
2021/03/31 06:31:21;;;;;;;6.90;3.10;;;;;;;4.00;90.33;96451.53;5072032;28;20535;-66
2021/03/31 06:33:49;;;;;;;6.47;2.57;;;;;;;4.26;89.76;96450.22;5069840;28;20686;-66
2021/03/31 06:36:18;;;;;;;9.93;3.90;;;;;;;4.45;88.48;96446.94;5072025;28;20668;-66
2021/03/31 06:38:48;;;;;;;8.67;3.63;;;;;;;4.62;88.14;96456.00;5065830;28;20218;-65
2021/03/31 06:41:29;;;;;;;7.40;4.63;;;;;;;4.85;88.18;96456.69;5072170;28;20224;-65
2021/03/31 06:44:10;;;;;;;5.10;4.47;;;;;;;5.03;88.34;96447.31;5075739;28;20278;-66
2021/03/31 06:46:47;;;;;;;11.40;6.73;;;;;;;5.28;88.22;96445.19;5072764;28;20257;-65
2021/03/31 06:49:14;;;;;;;2.70;2.50;;;;;;;5.49;88.31;96447.75;5076958;28;20224;-66
2021/03/31 06:51:41;;;;;;;3.67;3.37;;;;;;;5.72;87.27;96443.94;5070575;28;20246;-66
2021/03/31 06:54:14;;;;;;;5.07;4.17;;;;;;;5.96;85.76;96443.63;5063883;28;20296;-64
2021/03/31 06:56:44;;;;;;;4.23;3.90;;;;;;;6.18;83.93;96440.72;5067676;28;20674;-66
2021/03/31 06:59:11;;;;;;;4.80;3.53;;;;;;;6.43;82.80;96439.34;5074569;28;20565;-66
2021/03/31 07:01:39;;;;;;;4.90;4.50;;;;;;;6.68;80.93;96434.50;5079503;28;20249;-66
2021/03/31 07:04:08;;;;;;;5.73;4.30;;;;;;;6.91;80.27;96430.56;5067191;28;20226;-66
2021/03/31 07:06:35;;;;;;;5.67;4.03;;;;;;;7.15;79.87;96430.09;5065185;28;20818;-66
2021/03/31 07:09:17;;;;;;;5.13;4.37;;;;;;;7.39;79.81;96421.69;5079357;28;20269;-66
2021/03/31 07:11:45;;;;;;;5.83;5.37;;;;;;;7.62;77.91;96425.59;5066848;28;20297;-65
2021/03/31 07:14:12;;;;;;;5.77;5.20;;;;;;;7.90;78.33;96425.56;5068934;28;20223;-66
2021/03/31 07:16:40;;;;;;;4.67;4.17;;;;;;;8.11;76.92;96420.84;5074025;28;20636;-66
2021/03/31 07:19:07;;;;;;;5.67;5.10;;;;;;;8.34;76.40;96423.03;5074509;28;20222;-65
2021/03/31 07:21:55;;;;;;;6.13;5.60;;;;;;;8.65;75.19;96426.94;5076042;28;20384;-65
2021/03/31 07:24:21;;;;;;;8.73;5.10;;;;;;;8.88;75.02;96426.44;5078598;28;20310;-66
2021/03/31 07:26:49;;;;;;;5.70;5.13;;;;;;;9.12;74.06;96423.94;5069556;28;20235;-66
2021/03/31 07:29:18;;;;;;;6.73;5.07;;;;;;;9.35;73.42;96419.81;5071950;28;20303;-66
2021/03/31 07:31:45;;;;;;;7.23;4.63;;;;;;;9.51;72.29;96419.06;5064073;28;20231;-64
2021/03/31 07:34:17;;;;;;;6.70;5.47;;;;;;;9.74;71.35;96414.03;5071968;28;20597;-65
2021/03/31 07:36:47;;;;;;;6.90;6.23;;;;;;;9.97;70.74;96412.44;5063588;28;20271;-66
2021/03/31 07:39:16;;;;;;;8.57;4.47;;;;;;;10.28;70.46;96411.88;5072136;28;20232;-65
2021/03/31 07:41:44;;;;;;;4.50;4.10;;;;;;;10.43;69.56;96415.50;5055510;28;20238;-65
2021/03/31 07:44:18;;;;;;;5.03;4.57;;;;;;;10.74;70.21;96417.47;5072167;28;20601;-66
2021/03/31 07:46:48;;;;;;;5.07;4.67;;;;;;;11.00;69.20;96415.47;5071188;28;20238;-66
2021/03/31 07:49:16;;;;;;;9.37;5.53;;;;;;;11.20;69.73;96412.44;5071080;28;20221;-65
2021/03/31 07:51:58;;;;;;;5.70;4.60;;;;;;;11.50;68.38;96409.03;5079977;28;20672;-66
2021/03/31 07:54:26;;;;;;;8.50;5.23;;;;;;;11.67;66.96;96410.63;5074820;28;20622;-66
2021/03/31 07:56:54;;;;;;;7.30;6.53;;;;;;;11.85;65.45;96406.94;5073262;28;20680;-66
2021/03/31 07:59:22;;;;;;;7.40;6.30;;;;;;;12.12;66.99;96403.00;5080532;28;20265;-66
2021/03/31 08:01:51;;;;;;;8.37;5.33;;;;;;;12.37;66.63;96411.59;5073130;28;20221;-66
2021/03/31 08:04:21;;;;;;;13.20;8.13;;;;;;;12.52;64.83;96404.50;5071681;28;20267;-66
2021/03/31 08:06:50;;;;;;;5.50;4.97;;;;;;;12.84;64.36;96407.91;5082661;28;20221;-66
2021/03/31 08:09:22;;;;;;;10.73;5.63;;;;;;;13.08;63.93;96400.56;5064178;28;20222;-65
2021/03/31 08:11:58;;;;;;;8.03;6.93;;;;;;;13.23;62.04;96405.88;5064381;28;20223;-66
2021/03/31 08:14:50;;;;;;;6.77;6.27;;;;;;;13.42;60.85;96411.66;5081505;28;20240;-67
2021/03/31 08:17:38;;;;;;;7.90;5.10;;;;;;;13.77;58.12;96400.28;5083333;28;20229;-66
2021/03/31 08:20:07;;;;;;;8.63;5.57;;;;;;;13.91;59.72;96396.81;5080131;28;20234;-67
2021/03/31 08:22:37;;;;;;;14.60;6.07;;;;;;;14.12;60.17;96403.16;5085707;28;20240;-67
2021/03/31 08:25:21;;;;;;;10.20;6.90;;;;;;;14.40;55.27;96405.88;5071619;28;20311;-67
2021/03/31 08:28:05;;;;;;;4.83;4.30;;;;;;;14.48;50.48;96393.34;5071897;28;20499;-67
2021/03/31 08:30:36;;;;;;;6.20;3.17;;;;;;;14.49;44.07;96394.97;5075442;28;20234;-66
2021/03/31 08:33:04;;;;;;;7.93;4.10;;;;;;;14.31;51.30;96391.91;5071199;28;20225;-66
2021/03/31 08:35:32;;;;;;;7.30;3.60;;;;;;;14.33;51.04;96389.06;5078263;28;20227;-67
2021/03/31 08:37:59;;;;;;;6.60;3.60;;;;;;;14.49;45.97;96384.34;5081195;28;20271;-66
2021/03/31 08:40:31;;;;;;;5.10;4.37;;;;;;;14.59;43.71;96383.22;5078091;28;20222;-66
2021/03/31 08:43:19;;;;;;;4.70;3.97;;;;;;;14.59;44.61;96388.53;5082012;28;20218;-66
2021/03/31 08:45:52;;;;;;;3.63;3.33;;;;;;;14.55;45.70;96384.63;5080446;28;20693;-66
2021/03/31 08:48:38;;;;;;;5.77;2.93;;;;;;;14.72;51.15;96389.47;5083717;28;20228;-66
2021/03/31 08:51:07;;;;;;;3.43;3.13;;;;;;;14.98;49.59;96380.88;5070646;28;20733;-67
2021/03/31 08:53:34;;;;;;;7.10;4.17;;;;;;;15.07;50.24;96385.03;5084603;28;20245;-65
2021/03/31 08:56:02;;;;;;;5.33;3.53;;;;;;;15.32;50.00;96372.09;5073795;28;20265;-67
2021/03/31 08:58:29;;;;;;;2.50;2.30;;;;;;;15.44;50.07;96375.00;5066518;28;20295;-67
2021/03/31 09:00:59;;;;;;;7.47;3.67;;;;;;;15.55;48.08;96377.16;5071962;28;20218;-66
2021/03/31 09:03:30;;;;;;;4.73;4.33;;;;;;;15.64;48.58;96365.34;5077749;28;20261;-67
2021/03/31 09:06:01;;;;;;;8.97;4.47;;;;;;;15.67;50.62;96373.94;5080335;28;20225;-67
2021/03/31 09:08:30;;;;;;;4.30;4.00;;;;;;;15.68;49.85;96373.75;5069815;28;20217;-67
2021/03/31 09:10:59;;;;;;;6.83;4.10;;;;;;;15.86;49.56;96366.03;5076954;28;20263;-67
2021/03/31 09:13:32;;;;;;;3.90;3.13;;;;;;;16.08;46.21;96364.03;5067369;28;20255;-65
2021/03/31 09:16:01;;;;;;;4.63;4.20;;;;;;;16.19;49.18;96360.81;5075266;28;20222;-67
2021/03/31 09:18:30;;;;;;;8.83;4.07;;;;;;;16.18;49.59;96367.16;5064694;28;20221;-66
2021/03/31 09:20:57;;;;;;;4.90;4.40;;;;;;;16.31;49.21;96362.88;5070618;28;20222;-66
2021/03/31 09:23:26;;;;;;;8.80;5.03;;;;;;;16.29;48.96;96354.28;5083157;28;20785;-66
2021/03/31 09:26:01;;;;;;;7.47;6.77;;;;;;;16.40;48.98;96351.00;5080285;28;20229;-66
2021/03/31 09:28:29;;;;;;;8.67;7.97;;;;;;;16.60;46.63;96357.16;5082830;28;20216;-67
2021/03/31 09:31:01;;;;;;;10.53;7.60;;;;;;;16.75;47.07;96355.16;5072996;28;20226;-67
2021/03/31 09:33:32;;;;;;;8.93;6.87;;;;;;;16.97;47.29;96346.94;5077929;28;20222;-67
2021/03/31 09:36:20;;;;;;;6.87;5.37;;;;;;;17.46;46.84;96346.41;5068690;28;20228;-66
2021/03/31 09:38:54;;;;;;;10.23;6.77;;;;;;;17.67;44.91;96348.00;5079379;28;20213;-67
2021/03/31 09:41:24;;;;;;;12.57;7.30;;;;;;;17.56;43.69;96344.16;5068530;28;20226;-67
2021/03/31 09:43:51;;;;;;;8.40;7.37;;;;;;;17.89;43.82;96328.00;5075007;28;20283;-66
2021/03/31 09:46:23;;;;;;;8.83;7.43;;;;;;;17.98;44.45;96333.94;5084929;28;20286;-67
2021/03/31 09:48:51;;;;;;;7.77;7.07;;;;;;;18.18;43.88;96323.94;5080254;28;20314;-68
2021/03/31 09:51:19;;;;;;;8.33;7.47;;;;;;;18.22;43.07;96326.19;5065219;28;20238;-67
2021/03/31 09:53:48;;;;;;;8.27;7.30;;;;;;;18.65;42.91;96328.97;5053923;28;20226;-67
2021/03/31 09:56:16;;;;;;;9.03;7.13;;;;;;;18.84;42.86;96333.38;5068902;28;20238;-68
2021/03/31 09:58:46;;;;;;;7.27;6.60;;;;;;;19.18;42.87;96317.81;5042305;28;20223;-68
2021/03/31 10:01:15;;;;;;;8.23;7.43;;;;;;;19.20;41.63;96318.41;5067628;28;20257;-68
2021/03/31 10:03:43;;;;;;;9.27;7.50;;;;;;;19.46;40.98;96310.09;5081887;28;20373;-68
2021/03/31 10:06:23;;;;;;;6.90;6.27;;;;;;;19.78;40.91;96309.97;5073780;28;20316;-68
2021/03/31 10:08:51;;;;;;;7.63;6.80;;;;;;;19.97;41.52;96308.88;5049255;28;20387;-67
2021/03/31 10:11:36;;;;;;;9.80;7.17;;;;;;;20.35;41.13;96303.16;5054356;28;20223;-68
2021/03/31 10:14:04;;;;;;;5.63;5.23;;;;;;;20.94;38.74;96304.13;5084452;28;20275;-68
2021/03/31 10:16:36;;;;;;;9.33;6.77;;;;;;;21.15;38.48;96302.69;5077982;28;20690;-68
2021/03/31 10:19:05;;;;;;;18.17;9.03;;;;;;;21.03;39.52;96299.22;5075679;28;20244;-67
2021/03/31 10:21:33;;;;;;;8.57;5.90;;;;;;;21.05;40.74;96291.75;5065339;28;20283;-68
2021/03/31 10:24:02;;;;;;;15.97;8.60;;;;;;;21.24;39.44;96290.56;5060489;28;20272;-67
2021/03/31 10:26:47;;;;;;;9.97;6.63;;;;;;;21.68;38.56;96301.72;5046735;28;20245;-68
2021/03/31 10:29:36;;;;;;;10.20;7.33;;;;;;;21.70;38.49;96294.22;5070472;28;20378;-68
2021/03/31 10:32:24;;;;;;;9.33;8.40;;;;;;;21.60;37.78;96291.34;5072219;28;20616;-68
2021/03/31 10:34:52;;;;;;;8.37;7.63;;;;;;;22.39;37.19;96286.94;5081305;28;20232;-67
2021/03/31 10:37:28;;;;;;;11.53;8.17;;;;;;;21.94;38.73;96283.38;5080050;28;20317;-68
2021/03/31 10:49:07;;;;;;;7.53;6.83;;;;;;;22.97;36.89;96283.06;5046115;28;20296;-68
2021/03/31 10:51:43;;;;;;;9.50;7.73;;;;;;;23.32;42.22;96273.84;5053136;28;20304;-68
2021/03/31 10:54:13;;;;;;;8.00;7.30;;;;;;;23.63;36.66;96274.25;5047847;28;20226;-68
2021/03/31 10:56:48;;;;;;;8.50;7.57;;;;;;;24.06;32.47;96262.63;5044187;28;20679;-67
2021/03/31 10:59:15;;;;;;;11.97;8.63;;;;;;;23.70;35.14;96264.94;5046917;28;20222;-68
2021/03/31 11:01:42;;;;;;;8.17;7.30;;;;;;;23.92;35.68;96259.50;5050815;28;20256;-68
2021/03/31 11:04:09;;;;;;;8.30;6.87;;;;;;;24.08;35.86;96261.28;5053381;28;20218;-68
2021/03/31 11:06:36;;;;;;;29.98;11.15;;;;;;;24.22;34.98;96255.47;5056950;28;20226;-68
2021/03/31 11:09:03;;;;;;;9.40;8.17;;;;;;;23.99;35.00;96257.44;5057282;28;20284;-67
2021/03/31 11:11:31;;;;;;;11.67;8.73;;;;;;;23.90;34.85;96258.94;5055294;28;20234;-68
2021/03/31 11:13:58;;;;;;;11.67;7.60;;;;;;;24.63;34.19;96251.28;5057633;28;20219;-67
2021/03/31 11:16:26;;;;;;;10.03;9.00;;;;;;;24.89;33.13;96249.59;5053724;28;20229;-68
2021/03/31 11:19:05;;;;;;;12.70;9.07;;;;;;;24.66;33.18;96240.78;5058843;28;20226;-67
2021/03/31 11:27:14;;;;;;;10.02;9.02;;;;;;;25.10;32.81;96227.06;5053766;28;20580;-67
2021/03/31 11:29:41;;;;;;;9.93;8.40;;;;;;;25.34;32.62;96237.47;5047655;28;20313;-67
2021/03/31 11:32:07;;;;;;;10.32;9.27;;;;;;;25.14;32.05;96230.84;5044985;28;20219;-68
2021/03/31 11:34:34;;;;;;;26.35;12.93;;;;;;;25.16;33.05;96220.63;5057228;28;20693;-68
2021/03/31 11:37:03;;;;;;;10.82;8.88;;;;;;;25.44;33.21;96224.00;5060284;28;20222;-68
2021/03/31 11:39:29;;;;;;;8.88;7.97;;;;;;;25.78;33.04;96227.91;5052879;28;20226;-68
2021/03/31 11:41:56;;;;;;;9.75;7.95;;;;;;;25.94;31.83;96220.66;5061964;28;20253;-68
2021/03/31 11:44:24;;;;;;;15.18;8.82;;;;;;;25.58;31.62;96219.72;5075282;28;20221;-68
2021/03/31 11:46:51;;;;;;;8.05;7.30;;;;;;;25.60;31.83;96212.13;5079465;28;20218;-68
2021/03/31 11:49:18;;;;;;;7.00;6.57;;;;;;;25.00;32.69;96218.06;5077698;28;20225;-67
2021/03/31 11:51:45;;;;;;;7.03;6.43;;;;;;;24.10;30.89;96212.50;5063138;28;20226;-67
2021/03/31 11:54:12;;;;;;;9.65;7.63;;;;;;;23.96;30.67;96209.41;5062445;28;20732;-67
2021/03/31 11:56:39;;;;;;;10.50;5.07;;;;;;;24.50;30.51;96208.53;5060048;28;20595;-67
2021/03/31 11:59:06;;;;;;;8.25;6.32;;;;;;;24.47;30.51;96204.47;5071772;28;20275;-67
2021/03/31 12:01:35;;;;;;;4.80;4.40;;;;;;;24.67;28.46;96199.22;5065397;28;20230;-68
2021/03/31 12:04:02;;;;;;;7.03;4.88;;;;;;;24.81;29.43;96193.38;5061418;28;20632;-67
2021/03/31 12:06:29;;;;;;;23.58;6.18;;;;;;;24.76;29.06;96190.66;5061217;28;20221;-68